< < Back
Terminal Aerodrome Forecast


Current Version              Previous Versions:   1  2  3  4  5  6  7  8  9  

Terminal Aerodrome Forecast

766
FTUS42 KTAE 222200 AAB
TAFTLH
TAF AMD
KTLH 222203Z 2222/2318 07008KT 5SM -RA BR BKN014 OVC040
     FM230000 08010KT 2SM RA BR OVC007
     FM231200 14012KT 3SM BR OVC008=



Latest METAR

808
SAUS80 KWBC 230700 RRB
MTRTLH
METAR KTLH 230653Z AUTO 05005KT 3SM +RA BR SCT007 BKN014 OVC020 18/16
A3002 RMK AO2 SLP164 P0048 T01780161 $


USA.gov is the U.S. government's official web portal to all federal, state and local government web resources and services.